Time;durP1;ratioP1;P1;durP2;ratioP2;P2;SDS_P1;SDS_P2;PMS_P1;PMS_P2;Temp;Humidity;BMP_temperature;BMP_pressure;BME280_temperature;BME280_humidity;BME280_pressure;Samples;Min_cycle;Max_cycle;Signal;HPM_P1;HPM_P2
2022/10/27 00:00:48;154497.00;0.51;267.56;0.00;0.00;0.62;;;;;18.20;5.40;;;;;;2284410;60;2085;-88
2022/10/27 00:03:17;149913.00;0.50;259.66;0.00;0.00;0.62;;;;;17.60;4.40;;;;;;2284513;60;1221;-86
2022/10/27 00:05:47;148323.00;0.49;256.92;38922.00;0.13;68.02;;;;;17.90;8.00;;;;;;2284411;60;1406;-87
2022/10/27 00:08:15;65931.00;0.22;114.73;0.00;0.00;0.62;;;;;18.00;6.40;;;;;;2284477;60;1065;-86
2022/10/27 00:10:43;151505.00;0.51;262.40;0.00;0.00;0.62;;;;;17.90;6.70;;;;;;2284380;60;1066;-87
2022/10/27 00:13:11;198531.00;0.66;343.40;25382.00;0.08;44.59;;;;;17.80;6.60;;;;;;2284356;60;1050;-89
2022/10/27 00:15:38;429879.00;1.43;741.18;84453.00;0.28;146.73;;;;;18.30;7.50;;;;;;2284366;60;1573;-86
2022/10/27 00:18:09;141141.00;0.47;244.54;0.00;0.00;0.62;;;;;18.40;6.70;;;;;;2284934;60;1958;-88
2022/10/27 00:20:36;104095.00;0.35;180.64;0.00;0.00;0.62;;;;;18.50;6.00;;;;;;2284904;60;1046;-88
2022/10/27 00:23:04;117344352.00;391.15;65450740.00;116958760.00;389.86;64807076.00;;;;;18.30;3.30;;;;;;2285096;60;931;-86
2022/10/27 00:25:31;600423.00;2.00;1034.95;89791.00;0.30;155.95;;;;;17.90;4.60;;;;;;2285008;60;1362;-87
2022/10/27 00:27:58;229577.00;0.77;396.82;73093.00;0.24;127.10;;;;;17.80;6.30;;;;;;2285016;60;1070;-87
2022/10/27 00:30:24;372787.00;1.24;643.03;123177.00;0.41;213.56;;;;;17.80;4.50;;;;;;2285127;60;1043;-87
2022/10/27 00:32:53;552036.00;1.84;951.47;151944.00;0.51;263.16;;;;;17.50;4.00;;;;;;2285104;60;1110;-86
2022/10/27 00:35:20;0.00;0.00;0.62;0.00;0.00;0.62;;;;;17.50;6.40;;;;;;2284982;60;2200;-87
2022/10/27 00:37:47;142914.00;0.48;247.59;0.00;0.00;0.62;;;;;17.50;7.40;;;;;;2284984;60;1992;-86
2022/10/27 00:40:15;258120.00;0.86;445.92;0.00;0.00;0.62;;;;;17.50;5.70;;;;;;2284969;60;1055;-86
2022/10/27 00:42:42;232684.00;0.78;402.17;0.00;0.00;0.62;;;;;17.30;7.40;;;;;;2285071;60;1129;-87
2022/10/27 00:45:09;142803.00;0.48;247.40;0.00;0.00;0.62;;;;;17.30;4.30;;;;;;2285000;60;1441;-87
2022/10/27 00:47:38;184692.00;0.62;319.57;0.00;0.00;0.62;;;;;17.30;7.00;;;;;;2285037;60;1110;-86
2022/10/27 00:50:08;294041.00;0.98;507.68;24533.00;0.08;43.12;;;;;17.40;6.70;;;;;;2285032;60;1035;-87
2022/10/27 00:52:39;31097.00;0.10;54.48;0.00;0.00;0.62;;;;;17.00;4.20;;;;;;2285030;60;1039;-86
2022/10/27 00:55:10;341874.00;1.14;589.89;11912.00;0.04;21.26;;;;;17.50;8.20;;;;;;2284949;60;1431;-87
2022/10/27 00:57:40;62102.00;0.21;108.11;0.00;0.00;0.62;;;;;17.50;4.40;;;;;;2284882;60;1973;-86
2022/10/27 01:00:08;212308.00;0.71;367.11;0.00;0.00;0.62;;;;;17.50;6.30;;;;;;2284965;60;1128;-87
2022/10/27 01:02:36;301669.00;1.01;520.79;0.00;0.00;0.62;;;;;17.50;7.00;;;;;;2285011;60;1067;-86
2022/10/27 01:05:06;309447.00;1.03;534.16;0.00;0.00;0.62;;;;;17.80;7.10;;;;;;2284960;60;1367;-90
2022/10/27 01:07:34;195350.00;0.65;337.92;0.00;0.00;0.62;;;;;17.80;7.10;;;;;;2284941;60;1046;-88
2022/10/27 01:10:01;144703.00;0.48;250.68;0.00;0.00;0.62;;;;;18.00;7.50;;;;;;2284972;60;1078;-86
2022/10/27 01:12:28;44766.00;0.15;78.13;0.00;0.00;0.62;;;;;18.00;5.70;;;;;;2284828;60;1011;-86
2022/10/27 01:14:57;291142.00;0.97;502.69;0.00;0.00;0.62;;;;;18.00;6.80;;;;;;2284917;60;1378;-86
2022/10/27 01:17:36;235885.00;0.79;407.67;2648.00;0.01;5.21;;;;;18.00;6.30;;;;;;2284905;60;2000;-86
2022/10/27 01:20:34;96537.00;0.32;167.59;0.00;0.00;0.62;;;;;17.90;4.70;;;;;;2284965;60;1109;-87
2022/10/27 01:23:11;357983.00;1.19;617.58;70312.00;0.23;122.30;;;;;17.70;4.50;;;;;;2284881;60;1556;-87
2022/10/27 01:26:06;7136.00;0.02;12.99;0.00;0.00;0.62;;;;;17.40;4.10;;;;;;2284830;60;1381;-87
2022/10/27 01:29:05;241010.00;0.80;416.49;45237.00;0.15;78.95;;;;;17.30;6.60;;;;;;2284892;60;1407;-87
2022/10/27 01:31:41;436752.00;1.46;753.00;42666.00;0.14;74.50;;;;;17.40;7.80;;;;;;2284789;60;1006;-88
2022/10/27 01:34:16;435053.00;1.45;750.08;31418.00;0.10;55.04;;;;;17.30;7.80;;;;;;2284896;60;1097;-87
2022/10/27 01:36:49;259729.00;0.87;448.68;28722.00;0.10;50.37;;;;;17.50;8.50;;;;;;2284825;60;2022;-87
2022/10/27 01:39:21;147053.00;0.49;254.73;0.00;0.00;0.62;;;;;17.80;7.30;;;;;;2284860;60;1020;-87
2022/10/27 01:41:51;331480.00;1.10;572.03;37699.00;0.13;65.91;;;;;18.00;7.40;;;;;;2284875;60;1035;-87
2022/10/27 01:44:24;475382.00;1.58;819.45;0.00;0.00;0.62;;;;;18.00;6.90;;;;;;2284801;60;1007;-88
2022/10/27 01:46:54;395190.00;1.32;681.54;0.00;0.00;0.62;;;;;18.10;4.80;;;;;;2284796;60;1453;-86
2022/10/27 01:49:22;90855.00;0.30;157.78;0.00;0.00;0.62;;;;;17.60;6.80;;;;;;2284869;60;1107;-85
2022/10/27 01:51:49;300334.00;1.00;518.49;0.00;0.00;0.62;;;;;17.40;7.70;;;;;;2284839;60;1146;-88
2022/10/27 01:54:18;153321.00;0.51;265.53;0.00;0.00;0.62;;;;;17.20;6.50;;;;;;2284822;60;1123;-87
2022/10/27 01:57:02;227396.00;0.76;393.07;0.00;0.00;0.62;;;;;17.10;4.30;;;;;;2284781;60;1997;-88
2022/10/27 01:59:50;27228.00;0.09;47.78;0.00;0.00;0.62;;;;;16.90;7.40;;;;;;2284847;60;1022;-88
2022/10/27 02:02:28;407790.00;1.36;703.20;86978.00;0.29;151.09;;;;;17.30;8.90;;;;;;2284869;60;1110;-87
2022/10/27 02:05:06;153436.00;0.51;265.73;0.00;0.00;0.62;;;;;17.20;8.10;;;;;;2284764;60;1733;-86
2022/10/27 02:07:46;196885.00;0.66;340.56;0.00;0.00;0.62;;;;;17.30;5.80;;;;;;2284806;60;1431;-88
2022/10/27 02:10:18;321428.00;1.07;554.75;79847.00;0.27;138.77;;;;;17.00;4.30;;;;;;2284795;60;1604;-85
2022/10/27 02:12:47;318389.00;1.06;549.53;75807.00;0.25;131.79;;;;;17.00;8.90;;;;;;2284796;60;1627;-88
2022/10/27 02:15:27;442758.00;1.48;763.33;74676.00;0.25;129.84;;;;;17.30;7.20;;;;;;2284777;60;1351;-87
2022/10/27 02:18:02;263967.00;0.88;455.97;78325.00;0.26;136.14;;;;;17.50;8.00;;;;;;2284789;60;1978;-87
2022/10/27 02:20:34;395123.00;1.32;681.42;72660.00;0.24;126.36;;;;;17.30;7.30;;;;;;2284778;60;978;-87
2022/10/27 02:23:07;211702.00;0.71;366.06;76337.00;0.25;132.71;;;;;17.10;6.80;;;;;;2284784;60;1042;-85
2022/10/27 02:25:41;467354.00;1.56;805.64;54741.00;0.18;95.38;;;;;16.90;6.10;;;;;;2284741;60;1273;-87
2022/10/27 02:28:11;619635.00;2.07;1068.14;74651.00;0.25;129.80;;;;;16.80;6.40;;;;;;2284779;60;1234;-86
2022/10/27 02:30:40;431596.00;1.44;744.13;77578.00;0.26;134.85;;;;;16.70;6.20;;;;;;2284771;60;1011;-86
2022/10/27 02:33:09;437721.00;1.46;754.66;75603.00;0.25;131.44;;;;;16.50;6.10;;;;;;2284713;60;1089;-88
2022/10/27 02:35:36;498127.00;1.66;858.60;83627.00;0.28;145.30;;;;;16.10;6.90;;;;;;2284675;60;1350;-87
2022/10/27 02:38:04;418303.00;1.39;721.27;81217.00;0.27;141.14;;;;;15.90;8.90;;;;;;2284682;60;1923;-86
2022/10/27 02:40:31;282711.00;0.94;488.20;87720.00;0.29;152.37;;;;;16.00;6.80;;;;;;2284468;60;1055;-87
2022/10/27 02:42:58;284473.00;0.95;491.23;76491.00;0.25;132.98;;;;;15.80;4.30;;;;;;2284723;60;1087;-88
2022/10/27 02:45:25;382471.00;1.27;659.67;74993.00;0.25;130.39;;;;;16.00;9.50;;;;;;2284609;60;1553;-87
2022/10/27 02:47:52;435873.00;1.45;751.49;75663.00;0.25;131.55;;;;;16.00;8.90;;;;;;2284594;60;1495;-87
2022/10/27 02:50:20;507811.00;1.69;875.27;77073.00;0.26;133.98;;;;;16.40;10.60;;;;;;2284624;60;1554;-87
2022/10/27 02:52:47;314771.00;1.05;543.31;69485.00;0.23;120.87;;;;;16.30;6.00;;;;;;2284663;60;1085;-88
2022/10/27 02:55:14;330221.00;1.10;569.87;71567.00;0.24;124.47;;;;;16.60;8.70;;;;;;2284620;60;1308;-87
2022/10/27 02:57:41;307086.00;1.02;530.10;70729.00;0.24;123.02;;;;;16.70;4.40;;;;;;2284552;60;1912;-87
2022/10/27 03:00:09;253190.00;0.84;437.44;75003.00;0.25;130.40;;;;;16.40;7.00;;;;;;2284609;60;2018;-85
2022/10/27 03:02:36;543767.00;1.81;937.22;81267.00;0.27;141.23;;;;;16.20;7.40;;;;;;2284549;60;992;-87
2022/10/27 03:05:03;228311.00;0.76;394.64;70977.00;0.24;123.45;;;;;16.50;7.10;;;;;;2284651;60;1287;-88
2022/10/27 03:07:32;347029.00;1.16;598.75;65397.00;0.22;113.81;;;;;16.40;7.80;;;;;;2284703;60;903;-87
2022/10/27 03:09:58;526026.00;1.75;906.65;116734.00;0.39;202.45;;;;;16.10;3.70;;;;;;2284644;60;997;-86
2022/10/27 03:12:25;578899.00;1.93;997.80;72567.00;0.24;126.20;;;;;16.30;9.20;;;;;;2284567;60;1078;-86
2022/10/27 03:14:52;220650.00;0.74;381.46;74654.00;0.25;129.80;;;;;16.30;9.50;;;;;;2284482;60;1611;-87
2022/10/27 03:17:19;413757.00;1.38;713.46;134913.00;0.45;233.80;;;;;16.40;8.00;;;;;;2284568;60;1988;-86
2022/10/27 03:19:46;592849.00;1.98;1021.87;122688.00;0.41;212.72;;;;;16.30;6.50;;;;;;2284566;60;2152;-87
2022/10/27 03:22:13;566409.00;1.89;976.25;135710.00;0.45;235.17;;;;;16.70;9.60;;;;;;2284648;60;1012;-87
2022/10/27 03:24:41;644375.00;2.15;1110.91;89875.00;0.30;156.09;;;;;16.00;4.50;;;;;;2284619;60;917;-88
2022/10/27 03:27:08;411292.00;1.37;709.22;65302.00;0.22;113.64;;;;;16.30;9.20;;;;;;2284516;60;1296;-86
2022/10/27 03:29:35;499295.00;1.66;860.61;89101.00;0.30;154.76;;;;;16.60;7.90;;;;;;2284492;60;1560;-87
2022/10/27 03:32:02;344248.00;1.15;593.97;68473.00;0.23;119.12;;;;;16.70;7.90;;;;;;2284553;60;903;-87
2022/10/27 03:34:29;380519.00;1.27;656.32;83624.00;0.28;145.30;;;;;16.70;3.80;;;;;;2284576;60;994;-87
2022/10/27 03:36:56;504744.00;1.68;869.99;71418.00;0.24;124.21;;;;;16.40;3.60;;;;;;2284542;60;1989;-86
2022/10/27 03:39:23;441431.00;1.47;761.04;86225.00;0.29;149.79;;;;;16.40;8.70;;;;;;2284513;60;955;-86
2022/10/27 03:41:51;337228.00;1.12;581.91;74289.00;0.25;129.17;;;;;16.30;6.50;;;;;;2284452;60;1576;-88
2022/10/27 03:44:18;392475.00;1.31;676.87;74869.00;0.25;130.17;;;;;16.70;8.70;;;;;;2284427;60;1507;-88
2022/10/27 03:46:45;349376.00;1.16;602.79;72458.00;0.24;126.01;;;;;16.60;8.30;;;;;;2284461;60;1561;-86
2022/10/27 03:49:12;398323.00;1.33;686.92;75853.00;0.25;131.87;;;;;16.50;7.00;;;;;;2284557;60;1074;-87
2022/10/27 03:51:39;339871.00;1.13;586.45;69233.00;0.23;120.44;;;;;16.30;4.50;;;;;;2284328;60;944;-88
2022/10/27 03:54:06;417309.00;1.39;719.56;73946.00;0.25;128.58;;;;;16.60;8.10;;;;;;2284397;60;1573;-87
2022/10/27 03:56:32;420430.00;1.40;724.93;74510.00;0.25;129.55;;;;;16.70;7.50;;;;;;2284454;60;1343;-88
2022/10/27 03:59:01;446284.00;1.49;769.39;102321.00;0.34;177.58;;;;;16.60;8.20;;;;;;2284437;60;1932;-88
2022/10/27 04:01:35;324531.00;1.08;560.09;79314.00;0.26;137.85;;;;;16.50;7.10;;;;;;2284560;60;1020;-88
2022/10/27 04:04:03;352087.00;1.17;607.45;68361.00;0.23;118.93;;;;;16.60;7.30;;;;;;2284468;60;1637;-88
2022/10/27 04:06:30;552794.00;1.84;952.78;80035.00;0.27;139.10;;;;;16.60;5.60;;;;;;2284489;60;1312;-87
2022/10/27 04:08:57;503273.00;1.68;867.46;80033.00;0.27;139.09;;;;;16.10;3.30;;;;;;2284465;60;1707;-89
2022/10/27 04:11:24;117911016.00;393.04;66404380.00;137026.00;0.46;237.44;;;;;15.30;2.70;;;;;;2284356;60;1394;-88
2022/10/27 04:13:51;625383.00;2.08;1078.07;77136.00;0.26;134.09;;;;;15.00;7.20;;;;;;2284421;60;1535;-88
2022/10/27 04:16:19;576791.00;1.92;994.16;78996.00;0.26;137.30;;;;;14.80;5.90;;;;;;2284466;60;1287;-86
2022/10/27 04:18:47;491450.00;1.64;847.10;75354.00;0.25;131.01;;;;;15.00;9.00;;;;;;2284471;60;2021;-88
2022/10/27 04:21:15;411763.00;1.37;710.03;75133.00;0.25;130.63;;;;;15.10;9.70;;;;;;2284354;60;1616;-88
2022/10/27 04:23:42;588001.00;1.96;1013.51;75768.00;0.25;131.73;;;;;15.50;6.60;;;;;;2284407;60;1541;-88
2022/10/27 04:26:09;448016.00;1.49;772.37;71279.00;0.24;123.97;;;;;15.10;5.40;;;;;;2284420;60;1386;-87
2022/10/27 04:28:36;635300.00;2.12;1095.21;97032.00;0.32;168.45;;;;;14.70;7.40;;;;;;2284353;60;1581;-87
2022/10/27 04:31:03;659179.00;2.20;1136.52;70098.00;0.23;121.93;;;;;14.30;5.80;;;;;;2284384;60;2151;-88
2022/10/27 04:33:32;641571.00;2.14;1106.06;78753.00;0.26;136.88;;;;;14.00;8.30;;;;;;2284356;60;1063;-89
2022/10/27 04:35:59;474204.00;1.58;817.42;76531.00;0.26;133.04;;;;;13.80;7.00;;;;;;2284377;60;1582;-89
2022/10/27 04:38:26;597889.00;1.99;1030.58;83342.00;0.28;144.81;;;;;13.90;9.20;;;;;;2284336;60;2007;-88
2022/10/27 04:40:53;638122.00;2.13;1100.09;76354.00;0.25;132.74;;;;;14.40;10.00;;;;;;2284308;60;1564;-88
2022/10/27 04:43:20;678550.00;2.26;1170.06;139604.00;0.47;241.89;;;;;14.30;8.10;;;;;;2284340;60;1503;-89
2022/10/27 04:45:47;531713.00;1.77;916.44;85325.00;0.28;148.23;;;;;14.10;8.30;;;;;;2284429;60;1344;-90
2022/10/27 04:48:14;438377.00;1.46;755.79;73059.00;0.24;127.05;;;;;13.80;8.00;;;;;;2284335;60;1443;-89
2022/10/27 04:50:43;548206.00;1.83;944.87;76128.00;0.25;132.35;;;;;13.60;8.30;;;;;;2284407;60;1067;-88
2022/10/27 04:53:09;489263.00;1.63;843.34;103124.00;0.34;178.96;;;;;13.50;11.00;;;;;;2284341;60;936;-88
2022/10/27 04:55:36;598135.00;1.99;1031.00;77206.00;0.26;134.21;;;;;13.60;11.80;;;;;;2284362;60;1465;-88
2022/10/27 04:58:03;619090.00;2.06;1067.19;79184.00;0.26;137.63;;;;;13.80;9.70;;;;;;2284301;60;2009;-88
2022/10/27 05:00:30;401978.00;1.34;693.21;75869.00;0.25;131.90;;;;;14.10;11.10;;;;;;2284327;60;1132;-88
2022/10/27 05:02:58;398630.00;1.33;687.45;80635.00;0.27;140.13;;;;;14.30;9.50;;;;;;2284512;60;1139;-88
2022/10/27 05:05:28;438588.00;1.46;756.15;75636.00;0.25;131.50;;;;;14.40;11.10;;;;;;2284935;60;1542;-87
2022/10/27 05:07:59;506908.00;1.69;873.72;85631.00;0.29;148.76;;;;;14.60;11.80;;;;;;2284980;60;944;-87
2022/10/27 05:10:26;248013.00;0.83;428.53;0.00;0.00;0.62;;;;;15.00;9.10;;;;;;2285012;60;1094;-89
2022/10/27 05:12:53;404780.00;1.35;698.02;0.00;0.00;0.62;;;;;14.80;8.20;;;;;;2285045;60;1065;-86
2022/10/27 05:15:20;319682.00;1.07;551.75;0.00;0.00;0.62;;;;;14.60;6.80;;;;;;2284973;60;1375;-89
2022/10/27 05:17:47;311457.00;1.04;537.61;0.00;0.00;0.62;;;;;15.00;9.60;;;;;;2284953;60;1917;-87
2022/10/27 05:20:14;273933.00;0.91;473.11;0.00;0.00;0.62;;;;;15.10;6.70;;;;;;2284980;60;1102;-89
2022/10/27 05:22:41;265118.00;0.88;457.95;0.00;0.00;0.62;;;;;14.90;7.70;;;;;;2285012;60;1094;-88
2022/10/27 05:25:11;334891.00;1.12;577.89;0.00;0.00;0.62;;;;;14.70;9.00;;;;;;2284978;60;1525;-89
2022/10/27 05:27:38;309602.00;1.03;534.43;0.00;0.00;0.62;;;;;15.00;10.30;;;;;;2284967;60;1009;-88
2022/10/27 05:30:07;253713.00;0.85;438.34;0.00;0.00;0.62;;;;;15.20;7.50;;;;;;2285022;60;906;-87
2022/10/27 05:32:34;422509.00;1.41;728.50;74862.00;0.25;130.16;;;;;15.00;7.90;;;;;;2284959;60;1530;-88
2022/10/27 05:35:01;560619.00;1.87;966.27;74789.00;0.25;130.04;;;;;15.30;10.80;;;;;;2284821;60;1632;-89
2022/10/27 05:37:28;426546.00;1.42;735.45;71259.00;0.24;123.94;;;;;15.80;8.80;;;;;;2284960;60;1022;-88
2022/10/27 05:39:55;513073.00;1.71;884.33;101349.00;0.34;175.90;;;;;15.80;6.20;;;;;;2284837;60;2002;-87
2022/10/27 05:42:24;442187.00;1.47;762.34;115770.00;0.39;200.79;;;;;15.30;5.20;;;;;;2284878;60;1646;-87
2022/10/27 05:44:50;422966.00;1.41;729.29;0.00;0.00;0.62;;;;;15.10;7.40;;;;;;2284853;60;1450;-88
2022/10/27 05:47:17;474280.00;1.58;817.55;73017.00;0.24;126.97;;;;;15.00;7.40;;;;;;2284967;60;1015;-88
2022/10/27 05:49:44;593078.00;1.98;1022.27;67507.00;0.23;117.45;;;;;15.30;9.00;;;;;;2284949;60;918;-89
2022/10/27 05:52:11;450649.00;1.50;776.90;69567.00;0.23;121.01;;;;;15.50;7.60;;;;;;2284923;60;1061;-88
2022/10/27 05:54:38;513450.00;1.71;884.98;96713.00;0.32;167.90;;;;;15.50;6.90;;;;;;2284892;60;1565;-88
2022/10/27 05:57:05;460644.00;1.54;794.09;154382.00;0.51;267.36;;;;;15.60;8.60;;;;;;2284846;60;1285;-87
2022/10/27 05:59:33;454941.00;1.52;784.28;75676.00;0.25;131.57;;;;;15.60;6.20;;;;;;2284876;60;1911;-88
2022/10/27 06:02:00;550416.00;1.83;948.68;71871.00;0.24;124.99;;;;;15.30;5.70;;;;;;2284923;60;1066;-88
2022/10/27 06:04:27;509271.00;1.70;877.79;71046.00;0.24;123.57;;;;;15.10;8.20;;;;;;2284854;60;1577;-86
2022/10/27 06:06:54;610535.00;2.04;1052.41;77659.00;0.26;134.99;;;;;15.70;11.10;;;;;;2284859;60;1381;-88
2022/10/27 06:09:22;478812.00;1.60;825.35;78322.00;0.26;136.14;;;;;16.00;8.40;;;;;;2284831;60;1569;-88
2022/10/27 06:11:49;545691.00;1.82;940.53;80534.00;0.27;139.96;;;;;16.10;8.20;;;;;;2284825;60;947;-88
2022/10/27 06:14:16;392852.00;1.31;677.52;70256.00;0.23;122.20;;;;;16.10;8.90;;;;;;2284793;60;1006;-90
2022/10/27 06:16:44;589360.00;1.96;1015.85;74153.00;0.25;128.94;;;;;16.20;8.60;;;;;;2284800;60;1279;-88
2022/10/27 06:19:11;507989.00;1.69;875.58;73455.00;0.24;127.73;;;;;16.20;9.10;;;;;;2284748;60;2002;-88
2022/10/27 06:21:38;638834.00;2.13;1101.32;72125.00;0.24;125.43;;;;;16.30;6.60;;;;;;2284639;60;1719;-89
2022/10/27 06:24:05;436353.00;1.45;752.31;72756.00;0.24;126.52;;;;;16.20;5.80;;;;;;2284817;60;1014;-88
2022/10/27 06:26:32;518168.00;1.73;893.11;80528.00;0.27;139.95;;;;;15.80;6.20;;;;;;2284745;60;1593;-88
2022/10/27 06:28:59;632541.00;2.11;1090.44;124974.00;0.42;216.66;;;;;15.70;5.90;;;;;;2284819;60;1068;-87
2022/10/27 06:31:26;576988.00;1.92;994.50;74757.00;0.25;129.98;;;;;16.00;8.80;;;;;;2284764;60;1045;-87
2022/10/27 06:33:54;386400.00;1.29;666.43;70828.00;0.24;123.19;;;;;16.30;8.60;;;;;;2284645;60;1027;-88
2022/10/27 06:36:21;356842.00;1.19;615.62;75337.00;0.25;130.98;;;;;16.40;6.30;;;;;;2284724;60;1287;-86
2022/10/27 06:38:48;495231.00;1.65;853.61;68242.00;0.23;118.72;;;;;16.40;5.50;;;;;;2284749;60;1915;-88
2022/10/27 06:41:15;467073.00;1.56;805.15;73016.00;0.24;126.97;;;;;16.50;7.20;;;;;;2284715;60;997;-87
2022/10/27 06:43:42;494917.00;1.65;853.07;73877.00;0.25;128.46;;;;;16.50;6.40;;;;;;2284692;60;1604;-87
2022/10/27 06:46:09;426072.00;1.42;734.63;77002.00;0.26;133.86;;;;;16.70;6.00;;;;;;2284682;60;1365;-87
2022/10/27 06:48:36;423214.00;1.41;729.72;78747.00;0.26;136.87;;;;;16.70;6.70;;;;;;2284636;60;1084;-86
2022/10/27 06:51:04;525908.00;1.75;906.44;69133.00;0.23;120.26;;;;;16.40;6.00;;;;;;2284711;60;1537;-88
2022/10/27 06:53:31;537143.00;1.79;925.80;79438.00;0.26;138.07;;;;;16.20;3.70;;;;;;2284683;60;1513;-88
2022/10/27 06:55:59;560772.00;1.87;966.53;76037.00;0.25;132.19;;;;;16.30;6.60;;;;;;2284747;60;1272;-88
2022/10/27 06:58:25;597397.00;1.99;1029.73;68029.00;0.23;118.35;;;;;16.40;5.80;;;;;;2284562;60;2002;-88
2022/10/27 07:00:52;495274.00;1.65;853.69;67077.00;0.22;116.71;;;;;16.50;5.60;;;;;;2284692;60;974;-88
2022/10/27 07:03:19;511612.00;1.71;881.82;71587.00;0.24;124.50;;;;;16.30;6.40;;;;;;2284669;60;1357;-88
2022/10/27 07:05:46;426365.00;1.42;735.13;94173.00;0.31;163.51;;;;;16.40;5.00;;;;;;2284668;60;1360;-87
2022/10/27 07:08:15;501283.00;1.67;864.03;65330.00;0.22;113.69;;;;;16.30;3.50;;;;;;2284715;60;891;-88
2022/10/27 07:10:43;496120.00;1.65;855.14;91735.00;0.31;159.30;;;;;16.20;5.80;;;;;;2284630;60;1541;-88
2022/10/27 07:13:10;594492.00;1.98;1024.71;83036.00;0.28;144.28;;;;;16.20;4.70;;;;;;2284573;60;1457;-87
2022/10/27 07:15:38;553507.00;1.85;954.01;64343.00;0.21;111.98;;;;;15.90;4.80;;;;;;2284662;60;1374;-88
2022/10/27 07:18:06;441112.00;1.47;760.50;68860.00;0.23;119.79;;;;;15.90;6.50;;;;;;2284542;60;1923;-87
2022/10/27 07:20:35;211253.00;0.70;365.29;0.00;0.00;0.62;;;;;16.00;5.80;;;;;;2284643;60;1071;-86
2022/10/27 07:23:03;299391.00;1.00;516.87;0.00;0.00;0.62;;;;;15.90;6.80;;;;;;2284572;60;1454;-88
2022/10/27 07:25:33;397827.00;1.33;686.07;0.00;0.00;0.62;;;;;15.70;5.90;;;;;;2284597;60;1250;-87
2022/10/27 07:28:02;506803.00;1.69;873.54;43191.00;0.14;75.41;;;;;15.60;6.40;;;;;;2284586;60;1564;-87
2022/10/27 07:30:32;159646.00;0.53;276.43;17437.00;0.06;30.83;;;;;15.00;7.00;;;;;;2284550;60;1063;-88
2022/10/27 07:32:59;382163.00;1.27;659.14;0.00;0.00;0.62;;;;;15.00;9.30;;;;;;2284557;60;1474;-88
2022/10/27 07:35:26;323372.00;1.08;558.09;0.00;0.00;0.62;;;;;15.40;8.90;;;;;;2284540;60;1472;-88
2022/10/27 07:37:53;492242.00;1.64;848.47;53560.00;0.18;93.34;;;;;15.60;9.20;;;;;;2284486;60;1443;-87
2022/10/27 07:40:22;340811.00;1.14;588.07;87066.00;0.29;151.24;;;;;15.40;7.70;;;;;;2284466;60;2005;-87
2022/10/27 07:42:52;572584.00;1.91;986.90;0.00;0.00;0.62;;;;;15.80;7.40;;;;;;2284537;60;1450;-88
2022/10/27 07:45:21;315992.00;1.05;545.41;0.00;0.00;0.62;;;;;16.00;8.40;;;;;;2284484;60;1647;-88
2022/10/27 07:47:50;262972.00;0.88;454.26;0.00;0.00;0.62;;;;;16.10;7.90;;;;;;2284498;60;1062;-87
2022/10/27 07:50:19;352052.00;1.17;607.39;0.00;0.00;0.62;;;;;16.70;8.70;;;;;;2284564;60;1109;-88
2022/10/27 07:52:47;256912.00;0.86;443.84;0.00;0.00;0.62;;;;;16.80;7.70;;;;;;2284533;60;1075;-86
2022/10/27 07:55:16;325785.00;1.09;562.24;0.00;0.00;0.62;;;;;17.00;5.70;;;;;;2284482;60;1296;-87
2022/10/27 07:57:44;253437.00;0.84;437.86;0.00;0.00;0.62;;;;;17.20;5.50;;;;;;2284471;60;938;-87
2022/10/27 08:00:14;212704.00;0.71;367.79;39563.00;0.13;69.13;;;;;17.10;6.30;;;;;;2284481;60;1913;-87
2022/10/27 08:02:42;178718.00;0.60;309.28;0.00;0.00;0.62;;;;;17.40;5.60;;;;;;2284541;60;1070;-88
2022/10/27 08:05:10;329057.00;1.10;567.87;0.00;0.00;0.62;;;;;17.60;5.40;;;;;;2284412;60;1316;-88
2022/10/27 08:07:37;145909.00;0.49;252.76;0.00;0.00;0.62;;;;;17.80;6.00;;;;;;2284473;60;1044;-86
2022/10/27 08:10:05;366095.00;1.22;631.52;0.00;0.00;0.62;;;;;18.00;5.70;;;;;;2284433;60;917;-88
2022/10/27 08:12:32;453770.00;1.51;782.27;0.00;0.00;0.62;;;;;18.00;4.70;;;;;;2284413;60;1520;-88
2022/10/27 08:14:58;298946.00;1.00;516.11;0.00;0.00;0.62;;;;;17.80;5.10;;;;;;2284474;60;1425;-89
2022/10/27 08:17:28;177644.00;0.59;307.43;0.00;0.00;0.62;;;;;18.00;4.70;;;;;;2284392;60;1442;-87
2022/10/27 08:19:55;265797.00;0.89;459.12;0.00;0.00;0.62;;;;;18.00;4.90;;;;;;2284338;60;2002;-87
2022/10/27 08:22:22;33351.00;0.11;58.38;0.00;0.00;0.62;;;;;17.80;4.50;;;;;;2284428;60;1033;-87
2022/10/27 08:24:49;304142.00;1.01;525.04;0.00;0.00;0.62;;;;;17.90;5.30;;;;;;2284503;60;931;-87
2022/10/27 08:27:16;362963.00;1.21;626.14;43391.00;0.14;75.75;;;;;18.00;4.70;;;;;;2284471;60;1026;-87
2022/10/27 08:29:43;315574.00;1.05;544.69;14858.00;0.05;26.36;;;;;17.80;5.20;;;;;;2284423;60;1074;-88
2022/10/27 08:32:10;322193.00;1.07;556.07;0.00;0.00;0.62;;;;;17.90;4.60;;;;;;2284338;60;1009;-88
2022/10/27 08:34:38;357903.00;1.19;617.44;0.00;0.00;0.62;;;;;18.00;4.70;;;;;;2284393;60;940;-86
2022/10/27 08:37:05;150994.00;0.50;261.52;0.00;0.00;0.62;;;;;18.10;4.80;;;;;;2284309;60;1398;-88
2022/10/27 08:39:32;364228.00;1.21;628.32;0.00;0.00;0.62;;;;;17.90;4.60;;;;;;2285007;60;1988;-87
2022/10/27 08:42:09;452508.00;1.51;780.10;0.00;0.00;0.62;;;;;18.00;5.80;;;;;;2285034;60;1109;-87
2022/10/27 08:44:43;27562.00;0.09;48.36;0.00;0.00;0.62;;;;;18.30;6.10;;;;;;2285114;60;916;-88
2022/10/27 08:47:15;227353.00;0.76;392.99;80233.00;0.27;139.44;;;;;18.60;6.00;;;;;;2285091;60;1351;-88
2022/10/27 08:49:48;386466.00;1.29;666.54;113816.00;0.38;197.41;;;;;19.00;5.70;;;;;;2285136;60;989;-88
2022/10/27 08:52:26;0.00;0.00;0.62;0.00;0.00;0.62;;;;;19.00;5.40;;;;;;2285123;60;1216;-87
2022/10/27 08:54:59;538324.00;1.79;927.83;106069.00;0.35;184.05;;;;;19.00;5.40;;;;;;2285092;60;1432;-88
2022/10/27 08:57:30;48642.00;0.16;84.84;0.00;0.00;0.62;;;;;19.00;5.60;;;;;;2285033;60;1014;-88
2022/10/27 08:59:58;74728.00;0.25;129.93;0.00;0.00;0.62;;;;;19.30;5.70;;;;;;2284983;60;2250;-88
2022/10/27 09:02:45;134773.00;0.45;233.56;0.00;0.00;0.62;;;;;19.40;5.70;;;;;;2285040;60;1005;-87
2022/10/27 09:05:37;267572.00;0.89;462.17;0.00;0.00;0.62;;;;;19.50;5.80;;;;;;2284993;60;1336;-87
2022/10/27 09:08:15;72950.00;0.24;126.86;0.00;0.00;0.62;;;;;19.70;5.20;;;;;;2285011;60;1976;-88
2022/10/27 09:10:45;96920.00;0.32;168.26;4190.00;0.01;7.88;;;;;19.90;5.10;;;;;;2285018;60;1035;-86
2022/10/27 09:13:29;161783.00;0.54;280.11;0.00;0.00;0.62;;;;;19.90;5.20;;;;;;2285072;60;1110;-88
2022/10/27 09:16:01;96831.00;0.32;168.10;0.00;0.00;0.62;;;;;19.90;4.90;;;;;;2284977;60;1378;-89
2022/10/27 09:18:34;103088.00;0.34;178.90;0.00;0.00;0.62;;;;;20.10;5.20;;;;;;2285023;60;1108;-87
2022/10/27 09:21:09;32372.00;0.11;56.69;0.00;0.00;0.62;;;;;20.10;4.50;;;;;;2284713;60;1926;-88
2022/10/27 09:23:40;294234.00;0.98;508.01;27905.00;0.09;48.96;;;;;19.90;4.90;;;;;;2284914;60;1013;-88
2022/10/27 09:26:08;64318.00;0.21;111.94;0.00;0.00;0.62;;;;;19.90;5.10;;;;;;2284939;60;1477;-89
2022/10/27 09:28:41;163754.00;0.55;283.51;0.00;0.00;0.62;;;;;19.90;5.20;;;;;;2284896;60;1070;-89
2022/10/27 09:31:15;151445.00;0.50;262.30;0.00;0.00;0.62;;;;;19.70;5.70;;;;;;2284922;60;1118;-87
2022/10/27 09:33:51;54479.00;0.18;94.93;0.00;0.00;0.62;;;;;19.80;6.00;;;;;;2284799;60;1505;-89
2022/10/27 09:36:22;302651.00;1.01;522.48;0.00;0.00;0.62;;;;;20.10;5.50;;;;;;2284957;60;1522;-87
2022/10/27 09:38:49;189194.00;0.63;327.32;0.00;0.00;0.62;;;;;20.50;4.50;;;;;;2284919;60;1988;-88
2022/10/27 09:41:17;279854.00;0.93;483.29;0.00;0.00;0.62;;;;;20.50;3.80;;;;;;2284834;60;1095;-88
2022/10/27 09:43:44;249942.00;0.83;431.85;0.00;0.00;0.62;;;;;20.40;4.00;;;;;;2284865;60;1622;-88
2022/10/27 09:46:23;165003.00;0.55;285.66;0.00;0.00;0.62;;;;;20.60;3.30;;;;;;2284898;60;1377;-88